createdAt,value
2018-11-14T00:00:22.714Z,36.17
2018-11-14T00:02:51.849Z,33.77
2018-11-14T00:05:20.690Z,34.83
2018-11-14T00:07:49.653Z,33.93
2018-11-14T00:10:19.240Z,34.70
2018-11-14T00:12:47.887Z,32.87
2018-11-14T00:15:18.263Z,33.10
2018-11-14T00:17:48.022Z,34.50
2018-11-14T00:20:17.030Z,33.97
2018-11-14T00:22:47.357Z,32.63
2018-11-14T00:25:16.259Z,32.07
2018-11-14T00:27:44.951Z,29.67
2018-11-14T00:30:19.573Z,30.03
2018-11-14T00:32:48.338Z,31.67
2018-11-14T00:35:17.042Z,33.57
2018-11-14T00:37:46.370Z,34.20
2018-11-14T00:40:15.893Z,34.87
2018-11-14T00:42:45.387Z,31.70
2018-11-14T00:45:17.064Z,33.20
2018-11-14T00:47:46.967Z,32.33
2018-11-14T00:50:16.724Z,31.00
2018-11-14T00:52:46.750Z,31.63
2018-11-14T00:55:16.966Z,30.23
2018-11-14T00:57:46.974Z,31.70
2018-11-14T01:00:18.717Z,30.70
2018-11-14T01:02:48.102Z,30.57
2018-11-14T01:05:17.341Z,31.27
2018-11-14T01:07:46.347Z,31.03
2018-11-14T01:10:16.902Z,30.07
2018-11-14T01:12:46.596Z,30.87
2018-11-14T01:15:17.558Z,31.47
2018-11-14T01:17:46.632Z,30.07
2018-11-14T01:20:16.673Z,28.33
2018-11-14T01:22:46.014Z,27.13
2018-11-14T01:25:15.732Z,28.17
2018-11-14T01:27:44.971Z,27.13
2018-11-14T01:30:17.871Z,27.93
2018-11-14T01:32:47.436Z,29.67
2018-11-14T01:35:16.630Z,28.43
2018-11-14T01:37:45.617Z,27.67
2018-11-14T01:40:15.973Z,26.40
2018-11-14T01:42:45.922Z,25.93
2018-11-14T01:45:14.791Z,26.67
2018-11-14T01:47:43.401Z,26.17
2018-11-14T01:50:12.348Z,26.20
2018-11-14T01:52:41.403Z,25.40
2018-11-14T01:55:11.864Z,25.73
2018-11-14T01:57:40.673Z,25.50
2018-11-14T02:00:11.706Z,23.60
2018-11-14T02:02:41.005Z,25.23
2018-11-14T02:05:10.786Z,24.60
2018-11-14T02:07:39.530Z,24.97
2018-11-14T02:10:09.938Z,25.00
2018-11-14T02:12:39.463Z,25.83
2018-11-14T02:15:10.286Z,26.37
2018-11-14T02:17:39.498Z,24.63
2018-11-14T02:20:08.587Z,22.67
2018-11-14T02:22:37.580Z,24.13
2018-11-14T02:25:07.298Z,23.47
2018-11-14T02:27:36.171Z,26.20
2018-11-14T02:30:05.978Z,27.27
2018-11-14T02:32:34.592Z,26.53
2018-11-14T02:35:03.172Z,27.47
2018-11-14T02:37:32.185Z,25.13
2018-11-14T02:40:00.901Z,25.97
2018-11-14T02:42:29.778Z,24.47
2018-11-14T02:44:58.613Z,25.33
2018-11-14T02:47:27.830Z,24.43
2018-11-14T02:49:56.761Z,25.67
2018-11-14T02:52:25.809Z,24.30
2018-11-14T02:54:54.819Z,23.37
2018-11-14T02:57:24.026Z,23.20
2018-11-14T02:59:53.007Z,24.17
2018-11-14T03:02:21.838Z,24.57
2018-11-14T03:04:50.665Z,26.50
2018-11-14T03:07:19.381Z,23.97
2018-11-14T03:09:48.026Z,24.33
2018-11-14T03:12:16.978Z,24.17
2018-11-14T03:14:46.002Z,23.23
2018-11-14T03:17:15.255Z,24.63
2018-11-14T03:19:44.129Z,25.33
2018-11-14T03:22:13.243Z,24.60
2018-11-14T03:24:42.192Z,25.60
2018-11-14T03:27:11.218Z,26.10
2018-11-14T03:29:40.544Z,24.07
2018-11-14T03:32:09.297Z,27.80
2018-11-14T03:34:38.122Z,24.90
2018-11-14T03:37:07.614Z,26.63
2018-11-14T03:39:36.245Z,25.27
2018-11-14T03:42:05.062Z,26.40
2018-11-14T03:44:33.964Z,27.53
2018-11-14T03:47:02.753Z,27.70
2018-11-14T03:49:31.518Z,28.47
2018-11-14T03:52:00.371Z,27.93
2018-11-14T03:54:29.229Z,26.73
2018-11-14T03:56:58.301Z,26.23
2018-11-14T03:59:27.228Z,26.10
2018-11-14T04:01:55.981Z,26.37
2018-11-14T04:04:24.985Z,25.77
2018-11-14T04:06:53.646Z,26.53
2018-11-14T04:09:22.440Z,27.50
2018-11-14T04:11:51.301Z,26.27
2018-11-14T04:14:20.586Z,25.43
2018-11-14T04:16:49.526Z,23.67
2018-11-14T04:19:18.275Z,27.73
2018-11-14T04:21:47.486Z,27.07
2018-11-14T04:24:16.687Z,29.50
2018-11-14T04:26:45.524Z,29.73
2018-11-14T04:29:14.353Z,28.37
2018-11-14T04:31:43.522Z,28.70
2018-11-14T04:34:12.302Z,31.00
2018-11-14T04:36:41.328Z,30.90
2018-11-14T04:39:11.109Z,31.13
2018-11-14T04:41:39.806Z,27.87
2018-11-14T04:44:09.023Z,32.53
2018-11-14T04:46:37.970Z,31.00
2018-11-14T04:49:06.779Z,32.70
2018-11-14T04:51:35.687Z,32.30
2018-11-14T04:54:04.863Z,32.73
2018-11-14T04:56:33.653Z,31.60
2018-11-14T04:59:02.974Z,31.30
2018-11-14T05:01:31.733Z,30.23
2018-11-14T05:04:00.763Z,31.00
2018-11-14T05:06:29.673Z,29.07
2018-11-14T05:08:58.280Z,30.07
2018-11-14T05:11:26.904Z,30.83
2018-11-14T05:13:56.903Z,30.93
2018-11-14T05:16:25.922Z,32.77
2018-11-14T05:18:54.703Z,32.53
2018-11-14T05:21:23.517Z,33.73
2018-11-14T05:23:52.396Z,36.97
2018-11-14T05:26:21.374Z,36.20
2018-11-14T05:28:50.657Z,37.50
2018-11-14T05:31:19.480Z,34.23
2018-11-14T05:33:48.579Z,34.23
2018-11-14T05:36:17.446Z,32.97
2018-11-14T05:38:46.175Z,35.70
2018-11-14T05:41:14.884Z,32.90
2018-11-14T05:43:43.843Z,34.53
2018-11-14T05:46:12.637Z,34.50
2018-11-14T05:48:41.527Z,36.00
2018-11-14T05:51:10.425Z,50.73
2018-11-14T05:53:39.425Z,46.63
2018-11-14T05:56:08.394Z,41.73
2018-11-14T05:58:37.657Z,39.23
2018-11-14T06:01:06.538Z,39.10
2018-11-14T06:03:35.589Z,39.03
2018-11-14T06:06:04.725Z,39.20
2018-11-14T06:08:33.378Z,38.33
2018-11-14T06:11:02.075Z,43.70
2018-11-14T06:13:31.274Z,43.33
2018-11-14T06:16:00.347Z,41.57
2018-11-14T06:18:29.015Z,43.40
2018-11-14T06:20:58.152Z,42.77
2018-11-14T06:23:26.841Z,40.47
2018-11-14T06:25:55.818Z,39.83
2018-11-14T06:28:25.340Z,44.63
2018-11-14T06:30:54.037Z,49.07
2018-11-14T06:33:22.745Z,52.80
2018-11-14T06:35:51.737Z,49.40
2018-11-14T06:38:20.394Z,41.40
2018-11-14T06:40:49.067Z,39.27
2018-11-14T06:43:18.374Z,39.27
2018-11-14T06:45:47.230Z,42.13
2018-11-14T06:48:16.121Z,36.87
2018-11-14T06:50:45.063Z,42.60
2018-11-14T06:53:13.922Z,41.73
2018-11-14T06:55:42.934Z,36.80
2018-11-14T06:58:12.119Z,41.20
2018-11-14T07:00:40.772Z,36.53
2018-11-14T07:03:09.605Z,36.20
2018-11-14T07:05:38.223Z,36.30
2018-11-14T07:08:07.235Z,40.37
2018-11-14T07:10:37.027Z,45.30
2018-11-14T07:13:11.406Z,45.90
2018-11-14T07:15:41.361Z,46.37
2018-11-14T07:18:11.307Z,50.03
2018-11-14T07:20:42.778Z,46.63
2018-11-14T07:23:11.881Z,45.00
2018-11-14T07:25:40.589Z,47.87
2018-11-14T07:28:09.580Z,43.80
2018-11-14T07:30:38.512Z,45.70
2018-11-14T07:33:08.957Z,44.03
2018-11-14T07:35:37.637Z,48.23
2018-11-14T07:38:41.018Z,49.30
2018-11-14T07:41:11.265Z,43.10
2018-11-14T07:43:40.593Z,48.30
2018-11-14T07:46:10.215Z,43.53
2018-11-14T07:48:39.623Z,40.50
2018-11-14T07:51:09.113Z,37.17
2018-11-14T07:53:37.861Z,39.70
2018-11-14T07:56:07.233Z,36.87
2018-11-14T07:58:36.623Z,34.73
2018-11-14T08:01:05.894Z,35.83
2018-11-14T08:03:34.608Z,32.37
2018-11-14T08:06:03.633Z,35.77
2018-11-14T08:08:32.577Z,35.57
2018-11-14T08:11:01.130Z,33.40
2018-11-14T08:13:31.358Z,34.43
2018-11-14T08:16:01.346Z,33.17
2018-11-14T08:18:30.500Z,32.50
2018-11-14T08:21:00.344Z,33.23
2018-11-14T08:23:29.111Z,34.10
2018-11-14T08:25:58.205Z,29.67
2018-11-14T08:28:27.562Z,30.40
2018-11-14T08:30:56.527Z,29.93
2018-11-14T08:33:25.401Z,28.30
2018-11-14T08:35:54.428Z,27.03
2018-11-14T08:38:23.166Z,26.63
2018-11-14T08:40:51.879Z,28.30
2018-11-14T08:43:21.079Z,27.33
2018-11-14T08:45:49.929Z,26.13
2018-11-14T08:48:19.163Z,26.77
2018-11-14T08:50:48.468Z,27.73
2018-11-14T08:53:17.467Z,27.40
2018-11-14T08:55:46.432Z,28.27
2018-11-14T08:58:15.406Z,28.77
2018-11-14T09:00:44.521Z,27.90
2018-11-14T09:03:14.278Z,28.77
2018-11-14T09:05:43.266Z,29.37
2018-11-14T09:08:11.995Z,27.03
2018-11-14T09:10:40.754Z,26.67
2018-11-14T09:13:13.694Z,26.37
2018-11-14T09:15:43.016Z,25.77
2018-11-14T09:18:11.817Z,25.30
2018-11-14T09:20:40.842Z,27.27
2018-11-14T09:23:09.810Z,28.10
2018-11-14T09:25:38.682Z,25.07
2018-11-14T09:28:07.510Z,24.77
2018-11-14T09:30:36.389Z,26.93
2018-11-14T09:33:05.643Z,23.90
2018-11-14T09:35:34.759Z,26.63
2018-11-14T09:38:03.382Z,23.90
2018-11-14T09:40:32.030Z,25.93
2018-11-14T09:43:00.845Z,25.73
2018-11-14T09:45:31.129Z,27.47
2018-11-14T09:47:59.972Z,27.47
2018-11-14T09:50:30.530Z,28.37
2018-11-14T09:53:06.168Z,24.93
2018-11-14T09:55:35.082Z,27.33
2018-11-14T09:58:03.824Z,29.20
2018-11-14T10:00:34.427Z,25.43
2018-11-14T10:03:13.617Z,26.80
2018-11-14T10:05:42.655Z,26.63
2018-11-14T10:08:11.621Z,26.57
2018-11-14T10:10:40.382Z,26.30
2018-11-14T10:13:09.264Z,26.30
2018-11-14T10:15:38.195Z,25.77
2018-11-14T10:18:07.045Z,26.57
2018-11-14T10:20:36.106Z,26.97
2018-11-14T10:23:05.031Z,24.17
2018-11-14T10:25:33.785Z,26.13
2018-11-14T10:28:02.628Z,28.60
2018-11-14T10:30:31.479Z,28.47
2018-11-14T10:33:00.554Z,27.33
2018-11-14T10:35:29.555Z,25.97
2018-11-14T10:37:58.328Z,27.00
2018-11-14T10:40:28.187Z,25.93
2018-11-14T10:42:57.258Z,27.23
2018-11-14T10:45:26.782Z,27.70
2018-11-14T10:47:55.639Z,29.03
2018-11-14T10:50:25.960Z,27.90
2018-11-14T10:52:54.697Z,29.40
2018-11-14T10:55:24.165Z,29.07
2018-11-14T10:57:53.657Z,29.53
2018-11-14T11:00:28.826Z,29.07
2018-11-14T11:03:03.674Z,28.50
2018-11-14T11:05:44.275Z,29.47
2018-11-14T11:08:19.505Z,29.20
2018-11-14T11:11:51.286Z,30.67
2018-11-14T11:14:25.535Z,32.17
2018-11-14T11:16:59.735Z,31.23
2018-11-14T11:19:30.038Z,32.80
2018-11-14T11:21:59.074Z,32.90
2018-11-14T11:24:28.048Z,32.40
2018-11-14T11:26:56.980Z,32.60
2018-11-14T11:29:25.848Z,32.77
2018-11-14T11:31:54.534Z,33.23
2018-11-14T11:34:23.766Z,33.87
2018-11-14T11:36:52.406Z,32.93
2018-11-14T11:39:21.045Z,31.90
2018-11-14T11:41:49.866Z,35.47
2018-11-14T11:44:18.773Z,38.80
2018-11-14T11:46:47.679Z,34.63
2018-11-14T11:49:16.787Z,40.77
2018-11-14T11:51:45.457Z,45.47
2018-11-14T11:54:14.178Z,34.97
2018-11-14T11:56:43.186Z,49.10
2018-11-14T11:59:11.919Z,44.37
2018-11-14T12:01:40.863Z,44.07
2018-11-14T12:04:09.770Z,63.03
2018-11-14T12:06:38.400Z,38.27
2018-11-14T12:09:10.073Z,49.57
2018-11-14T12:11:38.842Z,44.60
2018-11-14T12:14:07.942Z,43.57
2018-11-14T12:16:37.089Z,38.27
2018-11-14T12:19:06.274Z,41.30
2018-11-14T12:21:35.329Z,47.93
2018-11-14T12:24:04.841Z,41.67
2018-11-14T12:26:33.924Z,38.87
2018-11-14T12:29:02.930Z,40.17
2018-11-14T12:31:32.035Z,38.90
2018-11-14T12:34:01.011Z,34.67
2018-11-14T12:36:29.654Z,36.80
2018-11-14T12:38:58.402Z,40.07
2018-11-14T12:41:27.192Z,38.30
2018-11-14T12:43:55.834Z,38.37
2018-11-14T12:46:25.292Z,38.70
2018-11-14T12:48:54.364Z,42.10
2018-11-14T12:51:23.564Z,40.00
2018-11-14T12:53:52.898Z,41.60
2018-11-14T12:56:21.542Z,44.73
2018-11-14T12:58:50.333Z,43.77
2018-11-14T13:01:19.740Z,45.53
2018-11-14T13:03:48.346Z,47.77
2018-11-14T13:06:17.102Z,43.07
2018-11-14T13:08:46.131Z,47.33
2018-11-14T13:11:14.997Z,47.77
2018-11-14T13:13:45.762Z,50.25
2018-11-14T13:16:15.286Z,45.80
2018-11-14T13:18:44.446Z,51.60
2018-11-14T13:21:13.420Z,50.03
2018-11-14T13:23:42.678Z,46.83
2018-11-14T13:26:11.644Z,44.57
2018-11-14T13:28:40.213Z,46.93
2018-11-14T13:31:09.482Z,44.50
2018-11-14T13:33:38.106Z,48.40
2018-11-14T13:36:06.722Z,43.93
2018-11-14T13:38:35.653Z,44.47
2018-11-14T13:41:04.497Z,47.13
2018-11-14T13:43:33.460Z,45.03
2018-11-14T13:46:02.296Z,45.90
2018-11-14T13:48:30.915Z,44.93
2018-11-14T13:50:59.889Z,41.63
2018-11-14T13:53:28.966Z,47.53
2018-11-14T13:55:58.085Z,47.03
2018-11-14T13:58:26.931Z,45.97
2018-11-14T14:00:56.023Z,42.43
2018-11-14T14:03:24.601Z,48.53
2018-11-14T14:05:53.222Z,44.40
2018-11-14T14:08:22.274Z,43.40
2018-11-14T14:10:51.142Z,44.43
2018-11-14T14:13:20.144Z,45.03
2018-11-14T14:15:49.267Z,39.27
2018-11-14T14:18:18.257Z,46.67
2018-11-14T14:20:47.324Z,42.87
2018-11-14T14:23:16.534Z,42.57
2018-11-14T14:25:45.444Z,41.33
2018-11-14T14:28:14.495Z,42.50
2018-11-14T14:30:43.765Z,40.90
2018-11-14T14:33:12.466Z,37.43
2018-11-14T14:35:41.181Z,36.90
2018-11-14T14:38:10.048Z,37.43
2018-11-14T14:40:39.095Z,36.07
2018-11-14T14:43:08.121Z,35.20
2018-11-14T14:45:37.290Z,38.50
2018-11-14T14:48:06.395Z,41.53
2018-11-14T14:50:35.614Z,36.17
2018-11-14T14:53:04.749Z,32.93
2018-11-14T14:55:33.765Z,34.87
2018-11-14T14:58:02.715Z,33.10
2018-11-14T15:00:31.670Z,34.30
2018-11-14T15:03:00.291Z,29.80
2018-11-14T15:05:29.167Z,24.90
2018-11-14T15:07:58.174Z,27.57
2018-11-14T15:10:27.006Z,29.70
2018-11-14T15:12:55.821Z,33.43
2018-11-14T15:15:24.813Z,32.73
2018-11-14T15:17:53.605Z,34.60
2018-11-14T15:20:23.805Z,31.10
2018-11-14T15:22:52.875Z,29.60
2018-11-14T15:25:22.943Z,28.87
2018-11-14T15:27:52.130Z,29.47
2018-11-14T15:30:24.990Z,31.30
2018-11-14T15:32:54.003Z,30.30
2018-11-14T15:35:22.931Z,32.43
2018-11-14T15:37:51.673Z,30.17
2018-11-14T15:40:22.017Z,32.00
2018-11-14T15:42:51.019Z,29.10
2018-11-14T15:45:21.488Z,31.37
2018-11-14T15:47:50.741Z,29.77
2018-11-14T15:50:21.922Z,30.90
2018-11-14T15:52:52.130Z,34.60
2018-11-14T15:55:21.673Z,28.70
2018-11-14T15:57:50.857Z,28.70
2018-11-14T16:00:24.278Z,28.83
2018-11-14T16:02:52.981Z,27.97
2018-11-14T16:05:22.922Z,29.20
2018-11-14T16:07:53.320Z,32.10
2018-11-14T16:10:23.242Z,29.73
2018-11-14T16:12:51.970Z,25.13
2018-11-14T16:15:22.768Z,26.07
2018-11-14T16:17:51.677Z,29.10
2018-11-14T16:20:22.925Z,28.73
2018-11-14T16:22:51.941Z,25.43
2018-11-14T16:25:22.431Z,26.87
2018-11-14T16:27:52.829Z,27.37
2018-11-14T16:30:36.744Z,25.80
2018-11-14T16:33:06.890Z,28.37
2018-11-14T16:35:35.556Z,25.77
2018-11-14T16:38:04.386Z,26.87
2018-11-14T16:40:34.367Z,28.40
2018-11-14T16:43:05.592Z,26.10
2018-11-14T16:45:35.257Z,24.90
2018-11-14T16:48:04.060Z,25.93
2018-11-14T16:50:32.818Z,24.87
2018-11-14T16:53:02.210Z,23.07
2018-11-14T16:55:31.408Z,22.20
2018-11-14T16:58:00.301Z,25.27
2018-11-14T17:00:31.211Z,21.63
2018-11-14T17:03:00.047Z,21.47
2018-11-14T17:05:29.837Z,25.47
2018-11-14T17:07:59.111Z,21.87
2018-11-14T17:10:27.881Z,25.47
2018-11-14T17:12:58.109Z,26.63
2018-11-14T17:15:27.961Z,23.37
2018-11-14T17:17:56.903Z,20.63
2018-11-14T17:20:25.531Z,20.37
2018-11-14T17:22:55.206Z,19.97
2018-11-14T17:25:24.286Z,21.60
2018-11-14T17:27:53.011Z,21.40
2018-11-14T17:30:24.272Z,21.60
2018-11-14T17:32:53.380Z,22.33
2018-11-14T17:35:22.179Z,21.30
2018-11-14T17:37:52.388Z,23.63
2018-11-14T17:40:24.447Z,21.90
2018-11-14T17:42:54.051Z,19.23
2018-11-14T17:45:25.916Z,20.27
2018-11-14T17:47:55.115Z,21.17
2018-11-14T17:50:30.392Z,19.03
2018-11-14T17:53:00.267Z,19.73
2018-11-14T17:55:29.711Z,20.23
2018-11-14T17:57:58.974Z,22.37
2018-11-14T18:00:28.954Z,23.20
2018-11-14T18:02:57.941Z,22.70
2018-11-14T18:05:28.370Z,24.53
2018-11-14T18:07:57.598Z,20.07
2018-11-14T18:10:27.824Z,18.83
2018-11-14T18:12:58.046Z,19.87
2018-11-14T18:15:26.925Z,19.93
2018-11-14T18:17:56.742Z,18.33
2018-11-14T18:20:27.952Z,18.27
2018-11-14T18:22:57.147Z,18.50
2018-11-14T18:25:26.283Z,18.03
2018-11-14T18:27:55.196Z,18.53
2018-11-14T18:30:25.175Z,18.27
2018-11-14T18:32:54.630Z,21.60
2018-11-14T18:35:24.013Z,20.80
2018-11-14T18:37:53.642Z,21.43
2018-11-14T18:40:23.662Z,21.37
2018-11-14T18:42:52.474Z,19.20
2018-11-14T18:45:24.460Z,18.40
2018-11-14T18:47:53.903Z,18.87
2018-11-14T18:50:23.378Z,18.93
2018-11-14T18:52:52.706Z,19.73
2018-11-14T18:55:22.719Z,20.13
2018-11-14T18:57:51.721Z,20.27
2018-11-14T19:00:22.570Z,22.03
2018-11-14T19:02:51.279Z,19.43
2018-11-14T19:05:20.749Z,24.03
2018-11-14T19:07:50.133Z,26.27
2018-11-14T19:10:20.361Z,28.17
2018-11-14T19:12:49.874Z,22.97
2018-11-14T19:15:20.912Z,21.50
2018-11-14T19:17:50.014Z,19.70
2018-11-14T19:20:21.139Z,21.10
2018-11-14T19:22:50.043Z,20.00
2018-11-14T19:25:20.286Z,18.93
2018-11-14T19:27:49.751Z,19.27
2018-11-14T19:30:20.986Z,20.70
2018-11-14T19:32:50.825Z,19.93
2018-11-14T19:35:19.804Z,21.53
2018-11-14T19:37:49.955Z,21.47
2018-11-14T19:40:20.599Z,21.10
2018-11-14T19:42:50.769Z,21.87
2018-11-14T19:45:20.818Z,21.30
2018-11-14T19:47:49.703Z,22.97
2018-11-14T19:50:19.813Z,19.40
2018-11-14T19:52:49.335Z,23.17
2018-11-14T19:55:19.549Z,21.93
2018-11-14T19:57:49.422Z,20.10
2018-11-14T20:00:21.383Z,20.57
2018-11-14T20:02:50.398Z,19.60
2018-11-14T20:05:19.830Z,20.13
2018-11-14T20:07:48.837Z,19.90
2018-11-14T20:10:20.003Z,20.77
2018-11-14T20:12:49.747Z,19.30
2018-11-14T20:15:19.883Z,20.57
2018-11-14T20:17:49.342Z,20.33
2018-11-14T20:20:19.733Z,20.77
2018-11-14T20:22:48.873Z,19.77
2018-11-14T20:25:17.737Z,19.50
2018-11-14T20:27:46.739Z,19.13
2018-11-14T20:30:21.575Z,20.33
2018-11-14T20:32:51.307Z,22.20
2018-11-14T20:35:21.264Z,20.20
2018-11-14T20:37:50.200Z,20.50
2018-11-14T20:40:20.584Z,20.40
2018-11-14T20:42:50.484Z,19.20
2018-11-14T20:45:23.763Z,20.17
2018-11-14T20:47:52.486Z,19.03
2018-11-14T20:50:22.450Z,20.53
2018-11-14T20:52:53.817Z,21.77
2018-11-14T20:55:22.910Z,19.00
2018-11-14T20:57:52.426Z,19.87
2018-11-14T21:00:25.598Z,21.33
2018-11-14T21:02:54.271Z,20.13
2018-11-14T21:05:23.738Z,20.40
2018-11-14T21:07:52.471Z,23.00
2018-11-14T21:10:23.873Z,21.93
2018-11-14T21:12:53.505Z,20.43
2018-11-14T21:15:23.780Z,20.63
2018-11-14T21:17:53.644Z,21.77
2018-11-14T21:20:22.399Z,22.20
2018-11-14T21:22:51.829Z,21.50
2018-11-14T21:25:21.787Z,21.43
2018-11-14T21:27:50.966Z,21.90
2018-11-14T21:30:20.966Z,21.10
2018-11-14T21:32:50.263Z,21.33
2018-11-14T21:35:22.438Z,21.93
2018-11-14T21:37:52.817Z,22.50
2018-11-14T21:40:22.031Z,20.83
2018-11-14T21:42:51.348Z,21.40
2018-11-14T21:45:21.888Z,19.70
2018-11-14T21:47:55.934Z,22.73
2018-11-14T21:50:26.111Z,22.33
2018-11-14T21:52:54.817Z,20.53
2018-11-14T21:55:24.087Z,23.10
2018-11-14T21:57:53.222Z,20.97
2018-11-14T22:00:23.874Z,22.70
2018-11-14T22:02:54.052Z,22.03
2018-11-14T22:05:23.438Z,22.07
2018-11-14T22:07:52.354Z,22.97
2018-11-14T22:10:22.675Z,21.87
2018-11-14T22:12:52.094Z,23.17
2018-11-14T22:15:22.376Z,21.90
2018-11-14T22:17:51.603Z,21.57
2018-11-14T22:20:21.875Z,20.93
2018-11-14T22:22:51.442Z,21.63
2018-11-14T22:25:21.386Z,21.37
2018-11-14T22:27:50.352Z,23.23
2018-11-14T22:30:22.689Z,22.80
2018-11-14T22:32:51.500Z,22.00
2018-11-14T22:35:21.589Z,21.13
2018-11-14T22:37:51.198Z,21.23
2018-11-14T22:40:21.489Z,21.87
2018-11-14T22:42:51.178Z,21.47
2018-11-14T22:45:22.239Z,22.77
2018-11-14T22:47:51.253Z,22.87
2018-11-14T22:50:21.790Z,20.97
2018-11-14T22:52:51.019Z,21.33
2018-11-14T22:55:20.786Z,23.43
2018-11-14T22:57:50.211Z,22.40
2018-11-14T23:00:22.708Z,22.13
2018-11-14T23:02:52.640Z,23.63
2018-11-14T23:05:22.155Z,23.33
2018-11-14T23:07:52.150Z,23.23
2018-11-14T23:10:22.063Z,25.03
2018-11-14T23:12:51.458Z,25.23
2018-11-14T23:15:21.063Z,25.77
2018-11-14T23:17:49.971Z,24.80
2018-11-14T23:20:19.649Z,25.33
2018-11-14T23:22:48.923Z,25.33
2018-11-14T23:25:18.845Z,24.10
2018-11-14T23:27:50.197Z,26.20
2018-11-14T23:30:19.803Z,23.63
2018-11-14T23:32:50.146Z,24.60
2018-11-14T23:35:26.650Z,25.17
2018-11-14T23:37:57.639Z,23.40
2018-11-14T23:40:27.150Z,26.13
2018-11-14T23:42:55.982Z,23.17
2018-11-14T23:45:25.590Z,25.03
2018-11-14T23:47:54.342Z,22.43
2018-11-14T23:50:25.351Z,22.03
2018-11-14T23:52:55.032Z,23.13
2018-11-14T23:55:24.314Z,23.57
2018-11-14T23:57:53.031Z,22.07
